Hanjin Ottawa — DANM — position and weather

sailwx.info

Track history (hours):
 
Tides and Currents Weather Stations Pressure Air Temp Water Temp Dewpoint Dewpoint Depression Visibility Wind Speed Wind Dir Waves Ship Positions

Hanjin Ottawa

Last reported at 2014-Dec-18 06:34 UTC. Time now 2014-Dec-18 07:24 UTC.
Position N 49°18' W 123°04'.

Length 278.8 m; beam 40.3 m; draft 14 m.

Type: Ship. MMSI: 211378360.

Date/timePositionNaut miles runAvg speedWind from/ knotsBaromVisibWave heightAir tempDewpointWater temp
2014-Dec-18 06:34N 49°18' W 123°04'0 0.3
2014-Dec-18 05:34N 49°17' W 123°05'0 0.0
2014-Dec-18 04:34N 49°17' W 123°05'0 0.0
2014-Dec-18 03:34N 49°17' W 123°05'0 0.0
2014-Dec-18 02:33N 49°17' W 123°05'0 0.0
2014-Dec-18 01:34N 49°17' W 123°05'0 0.0
2014-Dec-18 00:34N 49°17' W 123°05'0 0.0
2014-Dec-17 23:33N 49°17' W 123°05'0 0.0
2014-Dec-17 22:34N 49°17' W 123°05'0 0.0
2014-Dec-17 21:34N 49°17' W 123°05'0 0.0
2014-Dec-17 20:34N 49°17' W 123°05'0 0.0
2014-Dec-17 19:34N 49°17' W 123°05'0 0.0
2014-Dec-17 18:34N 49°17' W 123°05'0 0.0
2014-Dec-17 17:34N 49°17' W 123°05'0 0.0
2014-Dec-17 16:34N 49°17' W 123°05'0 0.0
2014-Dec-17 15:34N 49°17' W 123°05'0 0.0
2014-Dec-17 14:34N 49°17' W 123°05'0 0.0
2014-Dec-17 13:34N 49°17' W 123°05'0 0.0
2014-Dec-17 12:33N 49°17' W 123°05'0 0.0
2014-Dec-17 11:34N 49°17' W 123°05'0 0.0
2014-Dec-17 10:33N 49°17' W 123°05'0 0.0
2014-Dec-17 09:33N 49°17' W 123°05'0 0.0
2014-Dec-17 08:33N 49°17' W 123°05'0 0.0
2014-Dec-17 07:34N 49°17' W 123°05'0 0.5
2014-Dec-17 06:34N 49°18' W 123°05'9 8.7
2014-Dec-17 05:33N 49°16' W 123°18'1919.0
2014-Dec-17 04:33N 48°58' W 123°11'1414.4
2014-Dec-17 03:33N 48°43' W 123°11'1817.7
2014-Dec-17 02:33N 48°26' W 123°11'1212.1
2014-Dec-17 01:33N 48°18' W 123°25'1514.2
2014-Dec-17 00:32N 48°13' W 123°46'1717.5
2014-Dec-16 23:33N 48°18' W 124°11'1818.4
2014-Dec-16 22:33N 48°26' W 124°36'1817.3
2014-Dec-16 21:33N 48°26' W 125°02'2220.7
2014-Dec-16 20:29N 48°05' W 125°12'5920.2
2014-Dec-16 17:33N 47°07' W 124°58'2121.4
2014-Dec-16 16:33N 46°48' W 124°43'2121.3
2014-Dec-16 15:34N 46°30' W 124°28'2020.4
2014-Dec-16 14:34N 46°13' W 124°12'1211.8
2014-Dec-16 13:33N 46°11' W 123°55'8 8.2
2014-Dec-16 12:34N 46°14' W 123°43'1211.9
2014-Dec-16 11:33N 46°15' W 123°26'10 9.5
2014-Dec-16 10:33N 46°10' W 123°15'1212.0
2014-Dec-16 09:34N 46°06' W 122°58'9 8.7
2014-Dec-16 08:33N 45°59' W 122°51'1010.1
2014-Dec-16 07:33N 45°50' W 122°48'1110.8
2014-Dec-16 06:33N 45°39' W 122°45'1 0.5
2014-Dec-16 05:33N 45°38' W 122°45'0 0.0
2014-Dec-16 04:33N 45°38' W 122°45'0 0.0
2014-Dec-16 03:32N 45°38' W 122°45'0 0.0
2014-Dec-16 02:32N 45°38' W 122°45'0 0.0
2014-Dec-16 01:33N 45°38' W 122°45'0 0.0
2014-Dec-16 00:26N 45°38' W 122°45'0 0.0
2014-Dec-15 23:34N 45°38' W 122°45'0 0.0
2014-Dec-15 22:34N 45°38' W 122°45'0 0.0
2014-Dec-15 21:34N 45°38' W 122°45'0 0.0
2014-Dec-15 20:33N 45°38' W 122°45'0 0.0
2014-Dec-15 19:33N 45°38' W 122°45'0 0.0
2014-Dec-15 18:33N 45°38' W 122°45'0 0.0
2014-Dec-15 17:33N 45°38' W 122°45'0 0.0
2014-Dec-15 16:33N 45°38' W 122°45'0 0.0
2014-Dec-15 15:33N 45°38' W 122°45'0 0.0
2014-Dec-15 14:33N 45°38' W 122°45'0 0.0
2014-Dec-15 13:33N 45°38' W 122°45'0 0.0
2014-Dec-15 12:33N 45°38' W 122°45'0 0.0
2014-Dec-15 11:33N 45°38' W 122°45'0 0.0
2014-Dec-15 10:33N 45°38' W 122°45'0 0.0
2014-Dec-15 09:33N 45°38' W 122°45'0 0.0
2014-Dec-15 08:33N 45°38' W 122°45'0 0.0
2014-Dec-15 07:33N 45°38' W 122°45'0 0.0
2014-Dec-15 06:33N 45°38' W 122°45'0 0.0
2014-Dec-15 05:33N 45°38' W 122°45'0 0.0
2014-Dec-15 04:33N 45°38' W 122°45'0 0.0
2014-Dec-15 03:33N 45°38' W 122°45'0 0.0
2014-Dec-15 02:33N 45°38' W 122°45'0 0.0
2014-Dec-15 01:33N 45°38' W 122°45'0 0.0
2014-Dec-15 00:33N 45°38' W 122°45'0 0.0
2014-Dec-14 23:33N 45°38' W 122°45'0 0.0
2014-Dec-14 22:33N 45°38' W 122°45'0 0.0
2014-Dec-14 21:33N 45°38' W 122°45'0 0.0
2014-Dec-14 20:33N 45°38' W 122°45'0 0.0
2014-Dec-14 19:33N 45°38' W 122°45'0 0.0
2014-Dec-14 18:33N 45°38' W 122°45'0 0.0
2014-Dec-14 17:33N 45°38' W 122°45'0 0.0
2014-Dec-14 16:33N 45°38' W 122°45'0 0.0
2014-Dec-14 15:33N 45°38' W 122°45'0 0.0
2014-Dec-14 14:33N 45°38' W 122°45'0 0.0
2014-Dec-14 13:33N 45°38' W 122°45'0 0.0
2014-Dec-14 12:33N 45°38' W 122°45'0 0.0
2014-Dec-14 11:33N 45°38' W 122°45'0 0.0
2014-Dec-14 10:33N 45°38' W 122°45'0 0.0
2014-Dec-14 09:33N 45°38' W 122°45'0 0.0
2014-Dec-14 08:33N 45°38' W 122°45'0 0.0
2014-Dec-14 07:33N 45°38' W 122°45'0 0.0
2014-Dec-14 06:33N 45°38' W 122°45'0 0.0
2014-Dec-14 05:33N 45°38' W 122°45'0 0.0
2014-Dec-14 04:33N 45°38' W 122°45'0 0.0
2014-Dec-14 03:33N 45°38' W 122°45'0 0.0
2014-Dec-14 02:33N 45°38' W 122°45'0 0.0
2014-Dec-14 01:32N 45°38' W 122°45'0 0.0
2014-Dec-14 00:33N 45°38' W 122°45'0 0.0
2014-Dec-13 23:33N 45°38' W 122°45'0 0.0
2014-Dec-13 22:33N 45°38' W 122°45'0 0.0
2014-Dec-13 21:33N 45°38' W 122°45'0 0.0
2014-Dec-13 20:33N 45°38' W 122°45'0 0.0
2014-Dec-13 19:33N 45°38' W 122°45'0 0.0
2014-Dec-13 18:33N 45°38' W 122°45'0 0.0
2014-Dec-13 17:33N 45°38' W 122°45'0 0.0
2014-Dec-13 16:33N 45°38' W 122°45'0 0.0
2014-Dec-13 15:33N 45°38' W 122°45'0 0.0
2014-Dec-13 14:33N 45°38' W 122°45'0 0.0
2014-Dec-13 13:33N 45°38' W 122°45'0 0.0
2014-Dec-13 12:33N 45°38' W 122°45'0 0.0
2014-Dec-13 11:33N 45°38' W 122°45'0 0.0
2014-Dec-13 10:33N 45°38' W 122°45'0 0.0
2014-Dec-13 09:33N 45°38' W 122°45'0 0.0
2014-Dec-13 08:33N 45°38' W 122°45'0 0.0
2014-Dec-13 07:33N 45°38' W 122°45'0 0.0
2014-Dec-13 06:33N 45°38' W 122°45'0 0.0
2014-Dec-13 05:33N 45°38' W 122°45'0 0.0
2014-Dec-13 04:33N 45°38' W 122°45'0 0.0
2014-Dec-13 03:33N 45°38' W 122°45'0 0.0
2014-Dec-13 02:33N 45°38' W 122°45'0 0.0
2014-Dec-13 01:31N 45°38' W 122°45'0 0.0
2014-Dec-13 00:33N 45°38' W 122°45'0 0.0
2014-Dec-12 23:33N 45°38' W 122°45'0 0.0
2014-Dec-12 22:33N 45°38' W 122°45'0 0.0
2014-Dec-12 21:33N 45°38' W 122°45'0 0.0
2014-Dec-12 20:33N 45°38' W 122°45'0 0.0
2014-Dec-12 19:33N 45°38' W 122°45'0 0.0
2014-Dec-12 18:30N 45°38' W 122°45'0 0.0
2014-Dec-12 17:33N 45°38' W 122°45'0 0.0
2014-Dec-12 16:33N 45°38' W 122°45'0 0.0
2014-Dec-12 15:33N 45°38' W 122°45'0 0.0
2014-Dec-12 14:33N 45°38' W 122°45'0 0.0
2014-Dec-12 13:33N 45°38' W 122°45'0 0.0
2014-Dec-12 12:33N 45°38' W 122°45'0 0.0
2014-Dec-12 11:33N 45°38' W 122°45'0 0.0
2014-Dec-12 10:33N 45°38' W 122°45'0 0.0
2014-Dec-12 09:33N 45°38' W 122°45'0 0.0
2014-Dec-12 08:33N 45°38' W 122°45'0 0.0
2014-Dec-12 07:33N 45°38' W 122°45'0 0.0
2014-Dec-12 06:33N 45°38' W 122°45'0 0.0
2014-Dec-12 05:33N 45°38' W 122°45'0 0.0
2014-Dec-12 04:33N 45°38' W 122°45'0 0.0
2014-Dec-12 03:33N 45°38' W 122°45'0 0.0
2014-Dec-12 02:33N 45°38' W 122°45'0 0.0
2014-Dec-12 01:33N 45°38' W 122°45'0 0.0
2014-Dec-12 00:33N 45°38' W 122°45'0 0.0
2014-Dec-11 23:33N 45°38' W 122°45'0 0.0
2014-Dec-11 22:33N 45°38' W 122°45'0 0.0
2014-Dec-11 21:33N 45°38' W 122°45'0 0.0
2014-Dec-11 20:33N 45°38' W 122°45'0 0.0
2014-Dec-11 19:33N 45°38' W 122°45'0 0.0
2014-Dec-11 18:33N 45°38' W 122°45'0 0.0
2014-Dec-11 17:33N 45°38' W 122°45'0 0.0
2014-Dec-11 16:33N 45°38' W 122°45'0 0.0
2014-Dec-11 15:33N 45°38' W 122°45'0 0.0
2014-Dec-11 14:33N 45°38' W 122°45'0 0.0
2014-Dec-11 13:34N 45°38' W 122°45'0 0.0
2014-Dec-11 12:33N 45°38' W 122°45'0 0.0
2014-Dec-11 11:33N 45°38' W 122°45'0 0.0
2014-Dec-11 10:33N 45°38' W 122°45'0 0.0
2014-Dec-11 09:33N 45°38' W 122°45'0 0.0
2014-Dec-11 08:33N 45°38' W 122°45'0 0.0
2014-Dec-11 07:34N 45°38' W 122°45'0 0.0
2014-Dec-11 06:33N 45°38' W 122°45'0 0.0
2014-Dec-11 05:33N 45°38' W 122°45'0 0.0
2014-Dec-11 04:33N 45°38' W 122°45'0 0.0
2014-Dec-11 03:34N 45°38' W 122°45'0 0.0
2014-Dec-11 02:33N 45°38' W 122°45'0 0.0
2014-Dec-11 01:33N 45°38' W 122°45'0 0.0
2014-Dec-11 00:33N 45°38' W 122°45'0 0.0
2014-Dec-10 23:34N 45°38' W 122°45'0 0.0
2014-Dec-10 22:33N 45°38' W 122°45'0 0.0
2014-Dec-10 21:33N 45°38' W 122°45'0 0.0
2014-Dec-10 20:33N 45°38' W 122°45'0 0.0
2014-Dec-10 19:33N 45°38' W 122°45'0 0.0
2014-Dec-10 18:33N 45°38' W 122°45'0 0.0
2014-Dec-10 17:33N 45°38' W 122°45'0 0.0
2014-Dec-10 16:34N 45°38' W 122°45'0 0.0
2014-Dec-10 15:34N 45°38' W 122°45'0 0.0
2014-Dec-10 14:33N 45°38' W 122°45'0 0.0
2014-Dec-10 13:33N 45°38' W 122°45'0 0.0
2014-Dec-10 12:33N 45°38' W 122°45'0 0.0
2014-Dec-10 11:33N 45°38' W 122°45'0 0.0
2014-Dec-10 10:33N 45°38' W 122°45'0 0.0
2014-Dec-10 09:34N 45°38' W 122°45'0 0.0
2014-Dec-10 08:33N 45°38' W 122°45'0 0.0
2014-Dec-10 07:34N 45°38' W 122°45'0 0.0
2014-Dec-10 06:33N 45°38' W 122°45'0 0.0
2014-Dec-10 05:34N 45°38' W 122°45'0 0.0
2014-Dec-10 04:34N 45°38' W 122°45'0 0.0
2014-Dec-10 03:33N 45°38' W 122°45'0 0.0
2014-Dec-10 02:33N 45°38' W 122°45'0 0.0
2014-Dec-10 01:33N 45°38' W 122°45'0 0.0
2014-Dec-10 00:34N 45°38' W 122°45'0 0.0
2014-Dec-09 23:34N 45°38' W 122°45'0 0.0
2014-Dec-09 22:33N 45°38' W 122°45'0 0.0
2014-Dec-09 21:33N 45°38' W 122°45'0 0.0
2014-Dec-09 20:33N 45°38' W 122°45'0 0.0
2014-Dec-09 19:33N 45°38' W 122°45'0 0.0
2014-Dec-09 18:33N 45°38' W 122°45'0 0.0
2014-Dec-09 17:34N 45°38' W 122°45'0 0.0
2014-Dec-09 16:33N 45°38' W 122°45'0 0.0
2014-Dec-09 15:33N 45°38' W 122°45'0 0.0
2014-Dec-09 14:34N 45°38' W 122°45'0 0.0
2014-Dec-09 13:33N 45°38' W 122°45'0 0.0
2014-Dec-09 12:31N 45°38' W 122°45'0 0.0
2014-Dec-09 11:34N 45°38' W 122°45'0 0.0
2014-Dec-09 10:34N 45°38' W 122°45'0 0.0
2014-Dec-09 09:34N 45°38' W 122°45'0 0.0
2014-Dec-09 08:34N 45°38' W 122°45'0 0.0
2014-Dec-09 07:34N 45°38' W 122°45'0 0.0
2014-Dec-09 06:34N 45°38' W 122°45'0 0.0
2014-Dec-09 05:33N 45°38' W 122°45'0 0.0
2014-Dec-09 04:34N 45°38' W 122°45'0 0.0
2014-Dec-09 03:33N 45°38' W 122°45'0 0.0
2014-Dec-09 02:34N 45°38' W 122°45'6 5.9
2014-Dec-09 01:34N 45°44' W 122°46'1312.4
2014-Dec-09 00:33N 45°57' W 122°48'1111.0
2014-Dec-08 23:33N 46°06' W 122°57'1211.3
2014-Dec-08 22:32N 46°11' W 123°12'1010.0
2014-Dec-08 21:33N 46°12' W 123°26'1110.8
2014-Dec-08 20:34N 46°15' W 123°41'10 9.8
2014-Dec-08 19:34N 46°11' W 123°54'9 8.9
2014-Dec-08 18:34N 46°15' W 124°05'7 7.2
2014-Dec-08 17:33N 46°16' W 124°16'1111.1
2014-Dec-08 16:33N 46°24' W 124°26'1414.3
2014-Dec-08 15:33N 46°36' W 124°39'1515.1
2014-Dec-08 14:33N 46°49' W 124°48'1817.0
2014-Dec-08 13:31N 47°06' W 124°59'7016.7
2014-Dec-08 09:20N 48°15' W 125°12'1216.1
2014-Dec-08 08:33N 48°27' W 125°05'1212.3
2014-Dec-08 07:33N 48°31' W 124°48'  
Track history (hours):
 
Tides and Currents Weather Stations Pressure Air Temp Water Temp Dewpoint Dewpoint Depression Visibility Wind Speed Wind Dir Waves Ship Positions

Hanjin Ottawa

Last reported at 2014-Dec-18 06:34 UTC. Time now 2014-Dec-18 07:24 UTC.
Position N 49°18' W 123°04'.

Length 278.8 m; beam 40.3 m; draft 14 m.

Type: Ship. MMSI: 211378360.

Date/timePositionNaut miles runAvg speedWind from/ knotsBaromVisibWave heightAir tempDewpointWater temp
2014-Dec-18 06:34N 49°18' W 123°04'0 0.3
2014-Dec-18 05:34N 49°17' W 123°05'0 0.0
2014-Dec-18 04:34N 49°17' W 123°05'0 0.0
2014-Dec-18 03:34N 49°17' W 123°05'0 0.0
2014-Dec-18 02:33N 49°17' W 123°05'0 0.0
2014-Dec-18 01:34N 49°17' W 123°05'0 0.0
2014-Dec-18 00:34N 49°17' W 123°05'0 0.0
2014-Dec-17 23:33N 49°17' W 123°05'0 0.0
2014-Dec-17 22:34N 49°17' W 123°05'0 0.0
2014-Dec-17 21:34N 49°17' W 123°05'0 0.0
2014-Dec-17 20:34N 49°17' W 123°05'0 0.0
2014-Dec-17 19:34N 49°17' W 123°05'0 0.0
2014-Dec-17 18:34N 49°17' W 123°05'0 0.0
2014-Dec-17 17:34N 49°17' W 123°05'0 0.0
2014-Dec-17 16:34N 49°17' W 123°05'0 0.0
2014-Dec-17 15:34N 49°17' W 123°05'0 0.0
2014-Dec-17 14:34N 49°17' W 123°05'0 0.0
2014-Dec-17 13:34N 49°17' W 123°05'0 0.0
2014-Dec-17 12:33N 49°17' W 123°05'0 0.0
2014-Dec-17 11:34N 49°17' W 123°05'0 0.0
2014-Dec-17 10:33N 49°17' W 123°05'0 0.0
2014-Dec-17 09:33N 49°17' W 123°05'0 0.0
2014-Dec-17 08:33N 49°17' W 123°05'0 0.0
2014-Dec-17 07:34N 49°17' W 123°05'0 0.5
2014-Dec-17 06:34N 49°18' W 123°05'9 8.7
2014-Dec-17 05:33N 49°16' W 123°18'1919.0
2014-Dec-17 04:33N 48°58' W 123°11'1414.4
2014-Dec-17 03:33N 48°43' W 123°11'1817.7
2014-Dec-17 02:33N 48°26' W 123°11'1212.1
2014-Dec-17 01:33N 48°18' W 123°25'1514.2
2014-Dec-17 00:32N 48°13' W 123°46'1717.5
2014-Dec-16 23:33N 48°18' W 124°11'1818.4
2014-Dec-16 22:33N 48°26' W 124°36'1817.3
2014-Dec-16 21:33N 48°26' W 125°02'2220.7
2014-Dec-16 20:29N 48°05' W 125°12'5920.2
2014-Dec-16 17:33N 47°07' W 124°58'2121.4
2014-Dec-16 16:33N 46°48' W 124°43'2121.3
2014-Dec-16 15:34N 46°30' W 124°28'2020.4
2014-Dec-16 14:34N 46°13' W 124°12'1211.8
2014-Dec-16 13:33N 46°11' W 123°55'8 8.2
2014-Dec-16 12:34N 46°14' W 123°43'1211.9
2014-Dec-16 11:33N 46°15' W 123°26'10 9.5
2014-Dec-16 10:33N 46°10' W 123°15'1212.0
2014-Dec-16 09:34N 46°06' W 122°58'9 8.7
2014-Dec-16 08:33N 45°59' W 122°51'1010.1
2014-Dec-16 07:33N 45°50' W 122°48'1110.8
2014-Dec-16 06:33N 45°39' W 122°45'1 0.5
2014-Dec-16 05:33N 45°38' W 122°45'0 0.0
2014-Dec-16 04:33N 45°38' W 122°45'0 0.0
2014-Dec-16 03:32N 45°38' W 122°45'0 0.0
2014-Dec-16 02:32N 45°38' W 122°45'0 0.0
2014-Dec-16 01:33N 45°38' W 122°45'0 0.0
2014-Dec-16 00:26N 45°38' W 122°45'0 0.0
2014-Dec-15 23:34N 45°38' W 122°45'0 0.0
2014-Dec-15 22:34N 45°38' W 122°45'0 0.0
2014-Dec-15 21:34N 45°38' W 122°45'0 0.0
2014-Dec-15 20:33N 45°38' W 122°45'0 0.0
2014-Dec-15 19:33N 45°38' W 122°45'0 0.0
2014-Dec-15 18:33N 45°38' W 122°45'0 0.0
2014-Dec-15 17:33N 45°38' W 122°45'0 0.0
2014-Dec-15 16:33N 45°38' W 122°45'0 0.0
2014-Dec-15 15:33N 45°38' W 122°45'0 0.0
2014-Dec-15 14:33N 45°38' W 122°45'0 0.0
2014-Dec-15 13:33N 45°38' W 122°45'0 0.0
2014-Dec-15 12:33N 45°38' W 122°45'0 0.0
2014-Dec-15 11:33N 45°38' W 122°45'0 0.0
2014-Dec-15 10:33N 45°38' W 122°45'0 0.0
2014-Dec-15 09:33N 45°38' W 122°45'0 0.0
2014-Dec-15 08:33N 45°38' W 122°45'0 0.0
2014-Dec-15 07:33N 45°38' W 122°45'0 0.0
2014-Dec-15 06:33N 45°38' W 122°45'0 0.0
2014-Dec-15 05:33N 45°38' W 122°45'0 0.0
2014-Dec-15 04:33N 45°38' W 122°45'0 0.0
2014-Dec-15 03:33N 45°38' W 122°45'0 0.0
2014-Dec-15 02:33N 45°38' W 122°45'0 0.0
2014-Dec-15 01:33N 45°38' W 122°45'0 0.0
2014-Dec-15 00:33N 45°38' W 122°45'0 0.0
2014-Dec-14 23:33N 45°38' W 122°45'0 0.0
2014-Dec-14 22:33N 45°38' W 122°45'0 0.0
2014-Dec-14 21:33N 45°38' W 122°45'0 0.0
2014-Dec-14 20:33N 45°38' W 122°45'0 0.0
2014-Dec-14 19:33N 45°38' W 122°45'0 0.0
2014-Dec-14 18:33N 45°38' W 122°45'0 0.0
2014-Dec-14 17:33N 45°38' W 122°45'0 0.0
2014-Dec-14 16:33N 45°38' W 122°45'0 0.0
2014-Dec-14 15:33N 45°38' W 122°45'0 0.0
2014-Dec-14 14:33N 45°38' W 122°45'0 0.0
2014-Dec-14 13:33N 45°38' W 122°45'0 0.0
2014-Dec-14 12:33N 45°38' W 122°45'0 0.0
2014-Dec-14 11:33N 45°38' W 122°45'0 0.0
2014-Dec-14 10:33N 45°38' W 122°45'0 0.0
2014-Dec-14 09:33N 45°38' W 122°45'0 0.0
2014-Dec-14 08:33N 45°38' W 122°45'0 0.0
2014-Dec-14 07:33N 45°38' W 122°45'0 0.0
2014-Dec-14 06:33N 45°38' W 122°45'0 0.0
2014-Dec-14 05:33N 45°38' W 122°45'0 0.0
2014-Dec-14 04:33N 45°38' W 122°45'0 0.0
2014-Dec-14 03:33N 45°38' W 122°45'0 0.0
2014-Dec-14 02:33N 45°38' W 122°45'0 0.0
2014-Dec-14 01:32N 45°38' W 122°45'0 0.0
2014-Dec-14 00:33N 45°38' W 122°45'0 0.0
2014-Dec-13 23:33N 45°38' W 122°45'0 0.0
2014-Dec-13 22:33N 45°38' W 122°45'0 0.0
2014-Dec-13 21:33N 45°38' W 122°45'0 0.0
2014-Dec-13 20:33N 45°38' W 122°45'0 0.0
2014-Dec-13 19:33N 45°38' W 122°45'0 0.0
2014-Dec-13 18:33N 45°38' W 122°45'0 0.0
2014-Dec-13 17:33N 45°38' W 122°45'0 0.0
2014-Dec-13 16:33N 45°38' W 122°45'0 0.0
2014-Dec-13 15:33N 45°38' W 122°45'0 0.0
2014-Dec-13 14:33N 45°38' W 122°45'0 0.0
2014-Dec-13 13:33N 45°38' W 122°45'0 0.0
2014-Dec-13 12:33N 45°38' W 122°45'0 0.0
2014-Dec-13 11:33N 45°38' W 122°45'0 0.0
2014-Dec-13 10:33N 45°38' W 122°45'0 0.0
2014-Dec-13 09:33N 45°38' W 122°45'0 0.0
2014-Dec-13 08:33N 45°38' W 122°45'0 0.0
2014-Dec-13 07:33N 45°38' W 122°45'0 0.0
2014-Dec-13 06:33N 45°38' W 122°45'0 0.0
2014-Dec-13 05:33N 45°38' W 122°45'0 0.0
2014-Dec-13 04:33N 45°38' W 122°45'0 0.0
2014-Dec-13 03:33N 45°38' W 122°45'0 0.0
2014-Dec-13 02:33N 45°38' W 122°45'0 0.0
2014-Dec-13 01:31N 45°38' W 122°45'0 0.0
2014-Dec-13 00:33N 45°38' W 122°45'0 0.0
2014-Dec-12 23:33N 45°38' W 122°45'0 0.0
2014-Dec-12 22:33N 45°38' W 122°45'0 0.0
2014-Dec-12 21:33N 45°38' W 122°45'0 0.0
2014-Dec-12 20:33N 45°38' W 122°45'0 0.0
2014-Dec-12 19:33N 45°38' W 122°45'0 0.0
2014-Dec-12 18:30N 45°38' W 122°45'0 0.0
2014-Dec-12 17:33N 45°38' W 122°45'0 0.0
2014-Dec-12 16:33N 45°38' W 122°45'0 0.0
2014-Dec-12 15:33N 45°38' W 122°45'0 0.0
2014-Dec-12 14:33N 45°38' W 122°45'0 0.0
2014-Dec-12 13:33N 45°38' W 122°45'0 0.0
2014-Dec-12 12:33N 45°38' W 122°45'0 0.0
2014-Dec-12 11:33N 45°38' W 122°45'0 0.0
2014-Dec-12 10:33N 45°38' W 122°45'0 0.0
2014-Dec-12 09:33N 45°38' W 122°45'0 0.0
2014-Dec-12 08:33N 45°38' W 122°45'0 0.0
2014-Dec-12 07:33N 45°38' W 122°45'0 0.0
2014-Dec-12 06:33N 45°38' W 122°45'0 0.0
2014-Dec-12 05:33N 45°38' W 122°45'0 0.0
2014-Dec-12 04:33N 45°38' W 122°45'0 0.0
2014-Dec-12 03:33N 45°38' W 122°45'0 0.0
2014-Dec-12 02:33N 45°38' W 122°45'0 0.0
2014-Dec-12 01:33N 45°38' W 122°45'0 0.0
2014-Dec-12 00:33N 45°38' W 122°45'0 0.0
2014-Dec-11 23:33N 45°38' W 122°45'0 0.0
2014-Dec-11 22:33N 45°38' W 122°45'0 0.0
2014-Dec-11 21:33N 45°38' W 122°45'0 0.0
2014-Dec-11 20:33N 45°38' W 122°45'0 0.0
2014-Dec-11 19:33N 45°38' W 122°45'0 0.0
2014-Dec-11 18:33N 45°38' W 122°45'0 0.0
2014-Dec-11 17:33N 45°38' W 122°45'0 0.0
2014-Dec-11 16:33N 45°38' W 122°45'0 0.0
2014-Dec-11 15:33N 45°38' W 122°45'0 0.0
2014-Dec-11 14:33N 45°38' W 122°45'0 0.0
2014-Dec-11 13:34N 45°38' W 122°45'0 0.0
2014-Dec-11 12:33N 45°38' W 122°45'0 0.0
2014-Dec-11 11:33N 45°38' W 122°45'0 0.0
2014-Dec-11 10:33N 45°38' W 122°45'0 0.0
2014-Dec-11 09:33N 45°38' W 122°45'0 0.0
2014-Dec-11 08:33N 45°38' W 122°45'0 0.0
2014-Dec-11 07:34N 45°38' W 122°45'0 0.0
2014-Dec-11 06:33N 45°38' W 122°45'0 0.0
2014-Dec-11 05:33N 45°38' W 122°45'0 0.0
2014-Dec-11 04:33N 45°38' W 122°45'0 0.0
2014-Dec-11 03:34N 45°38' W 122°45'0 0.0
2014-Dec-11 02:33N 45°38' W 122°45'0 0.0
2014-Dec-11 01:33N 45°38' W 122°45'0 0.0
2014-Dec-11 00:33N 45°38' W 122°45'0 0.0
2014-Dec-10 23:34N 45°38' W 122°45'0 0.0
2014-Dec-10 22:33N 45°38' W 122°45'0 0.0
2014-Dec-10 21:33N 45°38' W 122°45'0 0.0
2014-Dec-10 20:33N 45°38' W 122°45'0 0.0
2014-Dec-10 19:33N 45°38' W 122°45'0 0.0
2014-Dec-10 18:33N 45°38' W 122°45'0 0.0
2014-Dec-10 17:33N 45°38' W 122°45'0 0.0
2014-Dec-10 16:34N 45°38' W 122°45'0 0.0
2014-Dec-10 15:34N 45°38' W 122°45'0 0.0
2014-Dec-10 14:33N 45°38' W 122°45'0 0.0
2014-Dec-10 13:33N 45°38' W 122°45'0 0.0
2014-Dec-10 12:33N 45°38' W 122°45'0 0.0
2014-Dec-10 11:33N 45°38' W 122°45'0 0.0
2014-Dec-10 10:33N 45°38' W 122°45'0 0.0
2014-Dec-10 09:34N 45°38' W 122°45'0 0.0
2014-Dec-10 08:33N 45°38' W 122°45'0 0.0
2014-Dec-10 07:34N 45°38' W 122°45'0 0.0
2014-Dec-10 06:33N 45°38' W 122°45'0 0.0
2014-Dec-10 05:34N 45°38' W 122°45'0 0.0
2014-Dec-10 04:34N 45°38' W 122°45'0 0.0
2014-Dec-10 03:33N 45°38' W 122°45'0 0.0
2014-Dec-10 02:33N 45°38' W 122°45'0 0.0
2014-Dec-10 01:33N 45°38' W 122°45'0 0.0
2014-Dec-10 00:34N 45°38' W 122°45'0 0.0
2014-Dec-09 23:34N 45°38' W 122°45'0 0.0
2014-Dec-09 22:33N 45°38' W 122°45'0 0.0
2014-Dec-09 21:33N 45°38' W 122°45'0 0.0
2014-Dec-09 20:33N 45°38' W 122°45'0 0.0
2014-Dec-09 19:33N 45°38' W 122°45'0 0.0
2014-Dec-09 18:33N 45°38' W 122°45'0 0.0
2014-Dec-09 17:34N 45°38' W 122°45'0 0.0
2014-Dec-09 16:33N 45°38' W 122°45'0 0.0
2014-Dec-09 15:33N 45°38' W 122°45'0 0.0
2014-Dec-09 14:34N 45°38' W 122°45'0 0.0
2014-Dec-09 13:33N 45°38' W 122°45'0 0.0
2014-Dec-09 12:31N 45°38' W 122°45'0 0.0
2014-Dec-09 11:34N 45°38' W 122°45'0 0.0
2014-Dec-09 10:34N 45°38' W 122°45'0 0.0
2014-Dec-09 09:34N 45°38' W 122°45'0 0.0
2014-Dec-09 08:34N 45°38' W 122°45'0 0.0
2014-Dec-09 07:34N 45°38' W 122°45'0 0.0
2014-Dec-09 06:34N 45°38' W 122°45'0 0.0
2014-Dec-09 05:33N 45°38' W 122°45'0 0.0
2014-Dec-09 04:34N 45°38' W 122°45'0 0.0
2014-Dec-09 03:33N 45°38' W 122°45'0 0.0
2014-Dec-09 02:34N 45°38' W 122°45'6 5.9
2014-Dec-09 01:34N 45°44' W 122°46'1312.4
2014-Dec-09 00:33N 45°57' W 122°48'1111.0
2014-Dec-08 23:33N 46°06' W 122°57'1211.3
2014-Dec-08 22:32N 46°11' W 123°12'1010.0
2014-Dec-08 21:33N 46°12' W 123°26'1110.8
2014-Dec-08 20:34N 46°15' W 123°41'10 9.8
2014-Dec-08 19:34N 46°11' W 123°54'9 8.9
2014-Dec-08 18:34N 46°15' W 124°05'7 7.2
2014-Dec-08 17:33N 46°16' W 124°16'1111.1
2014-Dec-08 16:33N 46°24' W 124°26'1414.3
2014-Dec-08 15:33N 46°36' W 124°39'1515.1
2014-Dec-08 14:33N 46°49' W 124°48'1817.0
2014-Dec-08 13:31N 47°06' W 124°59'7016.7
2014-Dec-08 09:20N 48°15' W 125°12'1216.1
2014-Dec-08 08:33N 48°27' W 125°05'1212.3
2014-Dec-08 07:33N 48°31' W 124°48'  

Dump ship's entire track history